createdAt,value
2019-05-29T00:00:21.226Z,12.00
2019-05-29T00:01:21.878Z,12.00
2019-05-29T00:02:21.465Z,12.00
2019-05-29T00:03:21.107Z,12.00
2019-05-29T00:04:21.098Z,12.00
2019-05-29T00:05:21.431Z,12.00
2019-05-29T00:06:21.113Z,12.00
2019-05-29T00:07:21.057Z,12.00
2019-05-29T00:08:21.328Z,12.00
2019-05-29T00:09:21.035Z,12.00
2019-05-29T00:10:21.030Z,12.00
2019-05-29T00:11:21.346Z,12.00
2019-05-29T00:13:30.241Z,12.00
2019-05-29T00:14:30.130Z,12.00
2019-05-29T00:15:29.852Z,12.00
2019-05-29T00:16:29.843Z,12.00
2019-05-29T00:17:30.205Z,12.00
2019-05-29T00:18:30.167Z,12.00
2019-05-29T00:19:30.123Z,12.00
2019-05-29T00:20:29.802Z,12.00
2019-05-29T00:21:29.783Z,12.00
2019-05-29T00:22:30.109Z,12.00
2019-05-29T00:23:30.121Z,12.00
2019-05-29T00:24:30.081Z,12.00
2019-05-29T00:25:29.747Z,12.00
2019-05-29T00:26:30.081Z,12.00
2019-05-29T00:27:29.729Z,12.00
2019-05-29T00:28:29.742Z,12.00
2019-05-29T00:29:29.992Z,12.00
2019-05-29T00:30:29.686Z,12.00
2019-05-29T00:31:29.673Z,12.00
2019-05-29T00:32:29.989Z,12.00
2019-05-29T00:33:29.649Z,12.00
2019-05-29T00:34:29.643Z,12.00
2019-05-29T00:35:30.475Z,12.00
2019-05-29T00:36:29.618Z,12.00
2019-05-29T00:37:29.603Z,12.00
2019-05-29T00:38:29.923Z,12.00
2019-05-29T00:39:29.583Z,12.00
2019-05-29T00:40:29.569Z,12.00
2019-05-29T00:41:29.852Z,12.00
2019-05-29T00:42:29.546Z,12.00
2019-05-29T00:43:29.552Z,12.00
2019-05-29T00:44:36.110Z,12.00
2019-05-29T00:45:29.833Z,12.00
2019-05-29T00:46:29.789Z,12.00
2019-05-29T00:47:29.780Z,16.00
2019-05-29T00:48:29.808Z,16.00
2019-05-29T00:49:29.835Z,16.00
2019-05-29T00:50:29.458Z,16.00
2019-05-29T00:51:29.447Z,16.00
2019-05-29T00:52:30.157Z,16.00
2019-05-29T00:53:29.422Z,16.00
2019-05-29T00:54:29.418Z,16.00
2019-05-29T00:55:29.666Z,16.00
2019-05-29T00:56:29.389Z,16.00
2019-05-29T00:57:29.372Z,16.00
2019-05-29T00:58:29.689Z,16.00
2019-05-29T00:59:29.363Z,16.00
2019-05-29T01:00:29.348Z,16.00
2019-05-29T01:01:29.657Z,16.00
2019-05-29T01:02:29.321Z,16.00
2019-05-29T01:03:29.302Z,16.00
2019-05-29T01:04:29.586Z,16.00
2019-05-29T01:05:29.297Z,16.00
2019-05-29T01:06:29.275Z,12.00
2019-05-29T01:07:29.626Z,12.00
2019-05-29T01:08:29.248Z,12.00
2019-05-29T01:09:29.236Z,12.00
2019-05-29T01:10:29.541Z,12.00
2019-05-29T01:11:29.215Z,16.00
2019-05-29T01:12:29.208Z,16.00
2019-05-29T01:13:29.516Z,16.00
2019-05-29T01:14:29.188Z,16.00
2019-05-29T01:15:29.167Z,16.00
2019-05-29T01:16:36.352Z,12.00
2019-05-29T01:17:29.151Z,12.00
2019-05-29T01:18:29.473Z,12.00
2019-05-29T01:19:29.473Z,12.00
2019-05-29T01:20:29.417Z,16.00
2019-05-29T01:21:29.370Z,16.00
2019-05-29T01:22:29.402Z,16.00
2019-05-29T01:23:29.392Z,16.00
2019-05-29T01:24:29.071Z,16.00
2019-05-29T01:25:29.055Z,16.00
2019-05-29T01:26:29.400Z,16.00
2019-05-29T01:27:29.036Z,16.00
2019-05-29T01:28:29.020Z,16.00
2019-05-29T01:29:29.330Z,16.00
2019-05-29T01:30:28.999Z,20.00
2019-05-29T01:31:28.995Z,20.00
2019-05-29T01:32:29.370Z,20.00
2019-05-29T01:33:28.969Z,16.00
2019-05-29T01:34:28.952Z,16.00
2019-05-29T01:35:29.278Z,16.00
2019-05-29T01:36:28.930Z,16.00
2019-05-29T01:37:28.953Z,16.00
2019-05-29T01:38:29.230Z,16.00
2019-05-29T01:39:28.895Z,16.00
2019-05-29T01:40:29.666Z,16.00
2019-05-29T01:41:29.235Z,16.00
2019-05-29T01:42:28.863Z,16.00
2019-05-29T01:43:28.855Z,16.00
2019-05-29T01:44:29.149Z,16.00
2019-05-29T01:45:28.839Z,16.00
2019-05-29T01:46:28.812Z,16.00
2019-05-29T01:47:29.075Z,16.00
2019-05-29T01:51:38.499Z,20.00
2019-05-29T02:12:37.924Z,28.00
2019-05-29T02:19:37.849Z,32.00
2019-05-29T02:20:44.345Z,32.00
2019-05-29T02:22:37.805Z,32.00
2019-05-29T02:43:37.577Z,40.00
2019-05-29T02:50:37.503Z,40.00
2019-05-29T02:53:46.982Z,36.00
2019-05-29T03:21:46.329Z,48.00
2019-05-29T03:24:53.249Z,44.00
2019-05-29T03:52:46.299Z,36.00
2019-05-29T03:55:45.992Z,48.00
2019-05-29T03:56:52.509Z,44.00
2019-05-29T04:17:46.094Z,76.00
2019-05-29T04:26:45.911Z,136.00
2019-05-29T04:28:52.803Z,152.00
2019-05-29T04:57:45.261Z,148.00
2019-05-29T05:00:59.167Z,136.00
2019-05-29T05:26:44.946Z,156.00
2019-05-29T05:28:46.214Z,156.00
2019-05-29T05:33:54.064Z,156.00
2019-05-29T05:34:54.006Z,156.00
2019-05-29T05:35:53.722Z,156.00
2019-05-29T05:36:54.091Z,160.00
2019-05-29T05:37:54.093Z,160.00
2019-05-29T05:38:54.003Z,164.00
2019-05-29T05:39:53.679Z,164.00
2019-05-29T05:40:53.661Z,152.00
2019-05-29T05:41:53.980Z,160.00
2019-05-29T05:42:53.982Z,156.00
2019-05-29T05:43:53.630Z,156.00
2019-05-29T05:44:53.982Z,160.00
2019-05-29T05:45:53.894Z,160.00
2019-05-29T05:46:53.665Z,160.00
2019-05-29T05:47:57.698Z,156.00
2019-05-29T05:48:53.574Z,132.00
2019-05-29T05:49:53.574Z,160.00
2019-05-29T05:50:53.843Z,160.00
2019-05-29T05:51:53.561Z,164.00
2019-05-29T05:52:53.533Z,156.00
2019-05-29T05:53:53.883Z,148.00
2019-05-29T05:54:53.506Z,152.00
2019-05-29T05:55:53.493Z,156.00
2019-05-29T05:56:53.921Z,156.00
2019-05-29T05:57:53.471Z,156.00
2019-05-29T05:58:53.458Z,156.00
2019-05-29T05:59:53.793Z,160.00
2019-05-29T06:00:53.434Z,156.00
2019-05-29T06:01:53.425Z,152.00
2019-05-29T06:02:53.751Z,152.00
2019-05-29T06:03:53.395Z,148.00
2019-05-29T06:05:53.650Z,156.00
2019-05-29T06:06:53.717Z,156.00
2019-05-29T06:07:53.714Z,156.00
2019-05-29T06:08:53.632Z,156.00
2019-05-29T06:09:53.661Z,156.00
2019-05-29T06:10:53.319Z,152.00
2019-05-29T06:11:53.305Z,152.00
2019-05-29T06:12:53.671Z,160.00
2019-05-29T06:13:53.292Z,160.00
2019-05-29T06:14:53.278Z,160.00
2019-05-29T06:15:53.605Z,168.00
2019-05-29T06:16:53.254Z,168.00
2019-05-29T06:18:16.914Z,96.00
2019-05-29T06:18:53.554Z,88.00
2019-05-29T06:19:53.237Z,92.00
2019-05-29T06:20:53.228Z,160.00
2019-05-29T06:21:53.554Z,152.00
2019-05-29T06:22:53.181Z,156.00
2019-05-29T06:23:53.180Z,160.00
2019-05-29T06:24:53.487Z,164.00
2019-05-29T06:25:53.152Z,172.00
2019-05-29T06:26:53.139Z,172.00
2019-05-29T06:27:53.418Z,132.00
2019-05-29T06:28:53.121Z,84.00
2019-05-29T06:29:53.107Z,156.00
2019-05-29T06:30:53.458Z,160.00
2019-05-29T06:31:53.081Z,168.00
2019-05-29T06:32:53.134Z,168.00
2019-05-29T06:33:53.433Z,168.00
2019-05-29T06:34:53.081Z,168.00
2019-05-29T06:35:53.032Z,164.00
2019-05-29T06:37:53.016Z,172.00
2019-05-29T06:38:53.279Z,176.00
2019-05-29T06:39:53.361Z,172.00
2019-05-29T06:40:53.325Z,172.00
2019-05-29T06:41:53.298Z,168.00
2019-05-29T06:42:53.268Z,164.00
2019-05-29T06:43:53.331Z,172.00
2019-05-29T06:44:52.971Z,172.00
2019-05-29T06:45:52.925Z,164.00
2019-05-29T06:46:53.334Z,160.00
2019-05-29T06:47:52.899Z,152.00
2019-05-29T06:48:59.825Z,156.00
2019-05-29T06:49:54.211Z,160.00
2019-05-29T06:50:56.397Z,164.00
2019-05-29T06:51:52.851Z,164.00
2019-05-29T06:52:53.181Z,164.00
2019-05-29T06:53:52.826Z,116.00
2019-05-29T06:54:52.842Z,112.00
2019-05-29T06:55:55.133Z,112.00
2019-05-29T06:56:52.789Z,168.00
2019-05-29T06:57:52.785Z,184.00
2019-05-29T06:58:52.793Z,188.00
2019-05-29T06:59:52.765Z,192.00
2019-05-29T07:00:53.141Z,184.00
2019-05-29T07:01:52.746Z,184.00
2019-05-29T07:02:52.741Z,184.00
2019-05-29T07:04:10.092Z,192.00
2019-05-29T07:04:52.698Z,188.00
2019-05-29T07:05:53.059Z,188.00
2019-05-29T07:06:53.144Z,188.00
2019-05-29T07:07:52.673Z,188.00
2019-05-29T07:09:52.951Z,188.00
2019-05-29T07:10:52.964Z,184.00
2019-05-29T07:11:52.937Z,180.00
2019-05-29T07:12:52.929Z,172.00
2019-05-29T07:13:52.978Z,176.00
2019-05-29T07:14:52.586Z,168.00
2019-05-29T07:15:52.750Z,168.00
2019-05-29T07:16:56.200Z,168.00
2019-05-29T07:17:52.555Z,164.00
2019-05-29T07:19:23.767Z,168.00
2019-05-29T07:20:02.778Z,172.00
2019-05-29T07:20:53.531Z,172.00
2019-05-29T07:21:52.547Z,176.00
2019-05-29T07:22:52.492Z,180.00
2019-05-29T07:23:52.787Z,180.00
2019-05-29T07:24:52.471Z,188.00
2019-05-29T07:25:52.457Z,196.00
2019-05-29T07:26:52.772Z,200.00
2019-05-29T07:27:52.447Z,196.00
2019-05-29T07:29:06.867Z,200.00
2019-05-29T07:29:53.420Z,208.00
2019-05-29T07:31:01.151Z,204.00
2019-05-29T07:31:53.434Z,200.00
2019-05-29T07:32:58.616Z,200.00
2019-05-29T07:33:52.699Z,204.00
2019-05-29T07:35:03.070Z,200.00
2019-05-29T07:35:52.351Z,200.00
2019-05-29T07:36:52.689Z,200.00
2019-05-29T07:37:52.349Z,192.00
2019-05-29T07:39:02.809Z,196.00
2019-05-29T07:39:53.630Z,188.00
2019-05-29T07:42:01.487Z,196.00
2019-05-29T07:43:01.447Z,200.00
2019-05-29T07:44:01.139Z,200.00
2019-05-29T07:45:01.557Z,200.00
2019-05-29T07:46:01.528Z,212.00
2019-05-29T07:47:01.459Z,208.00
2019-05-29T07:48:01.625Z,212.00
2019-05-29T07:49:01.105Z,232.00
2019-05-29T07:50:01.404Z,228.00
2019-05-29T07:51:06.893Z,220.00
2019-05-29T07:52:02.061Z,220.00
2019-05-29T07:53:01.212Z,232.00
2019-05-29T07:54:01.374Z,228.00
2019-05-29T07:55:01.024Z,236.00
2019-05-29T07:56:01.010Z,256.00
2019-05-29T07:57:01.395Z,260.00
2019-05-29T07:58:00.990Z,284.00
2019-05-29T07:59:03.471Z,292.00
2019-05-29T08:00:00.972Z,280.00
2019-05-29T08:01:12.777Z,252.00
2019-05-29T08:02:01.272Z,248.00
2019-05-29T08:03:00.939Z,228.00
2019-05-29T08:04:00.922Z,204.00
2019-05-29T08:05:01.329Z,200.00
2019-05-29T08:06:00.906Z,204.00
2019-05-29T08:07:00.890Z,212.00
2019-05-29T08:08:01.181Z,212.00
2019-05-29T08:09:00.867Z,232.00
2019-05-29T08:10:00.867Z,224.00
2019-05-29T08:11:01.161Z,208.00
2019-05-29T08:12:00.862Z,200.00
2019-05-29T08:13:08.870Z,204.00
2019-05-29T08:14:00.817Z,196.00
2019-05-29T08:15:01.161Z,184.00
2019-05-29T08:16:03.135Z,176.00
2019-05-29T08:17:01.093Z,176.00
2019-05-29T08:18:01.120Z,172.00
2019-05-29T08:19:00.983Z,172.00
2019-05-29T08:20:06.811Z,172.00
2019-05-29T08:21:00.743Z,180.00
2019-05-29T08:22:00.735Z,180.00
2019-05-29T08:23:01.059Z,172.00
2019-05-29T08:24:00.702Z,168.00
2019-05-29T08:25:00.689Z,172.00
2019-05-29T08:26:01.059Z,168.00
2019-05-29T08:27:00.665Z,172.00
2019-05-29T08:28:00.661Z,164.00
2019-05-29T08:29:00.999Z,180.00
2019-05-29T08:30:00.632Z,180.00
2019-05-29T08:31:00.647Z,176.00
2019-05-29T08:32:00.920Z,172.00
2019-05-29T08:33:00.600Z,176.00
2019-05-29T08:34:00.588Z,176.00
2019-05-29T08:35:00.937Z,172.00
2019-05-29T08:36:00.597Z,168.00
2019-05-29T08:37:07.122Z,164.00
2019-05-29T08:38:00.819Z,168.00
2019-05-29T08:39:00.538Z,168.00
2019-05-29T08:40:00.520Z,168.00
2019-05-29T08:41:00.856Z,168.00
2019-05-29T08:42:21.482Z,168.00
2019-05-29T08:43:01.489Z,176.00
2019-05-29T08:44:00.818Z,176.00
2019-05-29T08:46:09.976Z,192.00
2019-05-29T08:47:11.069Z,208.00
2019-05-29T08:48:09.954Z,204.00
2019-05-29T08:49:09.960Z,204.00
2019-05-29T08:50:18.020Z,208.00
2019-05-29T08:51:09.889Z,200.00
2019-05-29T08:52:12.333Z,220.00
2019-05-29T08:53:09.566Z,216.00
2019-05-29T08:54:23.432Z,216.00
2019-05-29T08:55:09.865Z,196.00
2019-05-29T08:56:09.834Z,188.00
2019-05-29T08:57:09.512Z,180.00
2019-05-29T08:58:09.509Z,164.00
2019-05-29T08:59:09.795Z,168.00
2019-05-29T09:00:09.481Z,168.00
2019-05-29T09:01:09.472Z,172.00
2019-05-29T09:02:09.810Z,176.00
2019-05-29T09:03:09.467Z,172.00
2019-05-29T09:04:09.439Z,184.00
2019-05-29T09:05:09.816Z,172.00
2019-05-29T09:06:12.970Z,172.00
2019-05-29T09:07:09.408Z,172.00
2019-05-29T09:08:09.763Z,168.00
2019-05-29T09:09:09.378Z,164.00
2019-05-29T09:10:09.362Z,160.00
2019-05-29T09:11:09.690Z,156.00
2019-05-29T09:12:09.347Z,160.00
2019-05-29T09:13:09.376Z,160.00
2019-05-29T09:14:09.668Z,160.00
2019-05-29T09:15:09.780Z,152.00
2019-05-29T09:16:09.302Z,156.00
2019-05-29T09:17:16.899Z,156.00
2019-05-29T09:18:09.597Z,156.00
2019-05-29T09:19:09.621Z,164.00
2019-05-29T09:20:26.126Z,172.00
2019-05-29T09:21:09.524Z,216.00
2019-05-29T09:22:09.595Z,268.00
2019-05-29T09:23:09.222Z,328.00
2019-05-29T09:24:09.281Z,352.00
2019-05-29T09:25:09.550Z,324.00
2019-05-29T09:26:16.059Z,292.00
2019-05-29T09:27:09.180Z,260.00
2019-05-29T09:28:09.483Z,256.00
2019-05-29T09:29:09.443Z,252.00
2019-05-29T09:30:09.152Z,232.00
2019-05-29T09:31:09.483Z,204.00
2019-05-29T09:32:09.120Z,180.00
2019-05-29T09:33:09.106Z,176.00
2019-05-29T09:34:09.429Z,172.00
2019-05-29T09:35:09.095Z,164.00
2019-05-29T09:36:09.069Z,160.00
2019-05-29T09:37:09.414Z,164.00
2019-05-29T09:38:09.055Z,176.00
2019-05-29T09:39:09.041Z,120.00
2019-05-29T09:40:09.334Z,144.00
2019-05-29T09:41:09.019Z,168.00
2019-05-29T09:42:09.000Z,172.00
2019-05-29T09:43:09.380Z,152.00
2019-05-29T09:44:08.983Z,184.00
2019-05-29T09:45:09.012Z,184.00
2019-05-29T09:46:09.319Z,188.00
2019-05-29T09:47:08.954Z,184.00
2019-05-29T09:48:08.944Z,180.00
2019-05-29T09:49:16.667Z,168.00
2019-05-29T09:50:08.914Z,168.00
2019-05-29T09:51:20.638Z,172.00
2019-05-29T09:52:10.251Z,172.00
2019-05-29T09:53:09.165Z,164.00
2019-05-29T09:54:09.212Z,160.00
2019-05-29T09:55:09.211Z,172.00
2019-05-29T09:56:09.149Z,180.00
2019-05-29T09:57:09.189Z,192.00
2019-05-29T09:58:08.821Z,200.00
2019-05-29T09:59:08.809Z,216.00
2019-05-29T10:01:21.932Z,240.00
2019-05-29T10:02:09.493Z,416.00
2019-05-29T10:03:09.063Z,508.00
2019-05-29T10:04:08.757Z,556.00
2019-05-29T10:06:09.619Z,584.00
2019-05-29T10:07:08.726Z,568.00
2019-05-29T10:08:08.728Z,668.00
2019-05-29T10:09:09.018Z,572.00
2019-05-29T10:10:08.691Z,456.00
2019-05-29T10:11:10.849Z,524.00
2019-05-29T10:12:09.066Z,484.00
2019-05-29T10:13:08.698Z,484.00
2019-05-29T10:14:08.643Z,308.00
2019-05-29T10:15:08.950Z,252.00
2019-05-29T10:16:08.616Z,212.00
2019-05-29T10:17:12.553Z,200.00
2019-05-29T10:18:30.076Z,220.00
2019-05-29T10:19:08.597Z,232.00
2019-05-29T10:20:08.571Z,244.00
2019-05-29T10:21:16.753Z,252.00
2019-05-29T10:22:08.895Z,256.00
2019-05-29T10:23:08.812Z,248.00
2019-05-29T10:24:08.925Z,232.00
2019-05-29T10:25:08.811Z,208.00
2019-05-29T10:26:08.870Z,188.00
2019-05-29T10:27:08.491Z,188.00
2019-05-29T10:28:08.478Z,192.00
2019-05-29T10:29:09.847Z,180.00
2019-05-29T10:30:08.474Z,184.00
2019-05-29T10:32:08.760Z,176.00
2019-05-29T10:33:08.423Z,176.00
2019-05-29T10:34:08.433Z,180.00
2019-05-29T10:35:08.778Z,192.00
2019-05-29T10:36:08.396Z,204.00
2019-05-29T10:37:08.381Z,200.00
2019-05-29T10:38:08.705Z,192.00
2019-05-29T10:39:08.355Z,180.00
2019-05-29T10:40:08.380Z,188.00
2019-05-29T10:41:08.346Z,204.00
2019-05-29T10:42:08.642Z,204.00
2019-05-29T10:43:08.314Z,204.00
2019-05-29T10:44:12.434Z,216.00
2019-05-29T10:45:08.298Z,224.00
2019-05-29T10:46:08.281Z,260.00
2019-05-29T10:47:08.569Z,300.00
2019-05-29T10:48:08.257Z,288.00
2019-05-29T10:49:08.254Z,276.00
2019-05-29T10:50:08.657Z,256.00
2019-05-29T10:51:08.262Z,220.00
2019-05-29T10:52:16.078Z,192.00
2019-05-29T10:54:17.380Z,184.00
2019-05-29T10:55:17.395Z,180.00
2019-05-29T10:56:20.881Z,180.00
2019-05-29T10:57:17.370Z,184.00
2019-05-29T10:58:17.403Z,188.00
2019-05-29T10:59:17.300Z,204.00
2019-05-29T11:00:17.170Z,212.00
2019-05-29T11:01:17.476Z,228.00
2019-05-29T11:02:16.980Z,244.00
2019-05-29T11:03:17.268Z,264.00
2019-05-29T11:04:16.960Z,280.00
2019-05-29T11:05:16.982Z,284.00
2019-05-29T11:06:17.270Z,308.00
2019-05-29T11:07:16.931Z,316.00
2019-05-29T11:08:16.912Z,376.00
2019-05-29T11:09:17.268Z,340.00
2019-05-29T11:10:16.896Z,376.00
2019-05-29T11:11:16.889Z,420.00
2019-05-29T11:12:16.997Z,456.00
2019-05-29T11:13:16.855Z,432.00
2019-05-29T11:14:17.172Z,516.00
2019-05-29T11:15:21.547Z,416.00
2019-05-29T11:16:16.824Z,364.00
2019-05-29T11:17:17.101Z,412.00
2019-05-29T11:18:16.809Z,348.00
2019-05-29T11:19:16.794Z,480.00
2019-05-29T11:20:17.094Z,324.00
2019-05-29T11:21:16.770Z,312.00
2019-05-29T11:22:26.130Z,292.00
2019-05-29T11:23:17.107Z,300.00
2019-05-29T11:24:16.736Z,268.00
2019-05-29T11:25:27.396Z,252.00
2019-05-29T11:26:16.979Z,244.00
2019-05-29T11:27:16.998Z,240.00
2019-05-29T11:28:17.093Z,252.00
2019-05-29T11:29:17.050Z,260.00
2019-05-29T11:30:16.989Z,264.00
2019-05-29T11:31:16.656Z,268.00
2019-05-29T11:32:16.645Z,268.00
2019-05-29T11:33:16.955Z,268.00
2019-05-29T11:34:16.628Z,252.00
2019-05-29T11:35:16.606Z,236.00
2019-05-29T11:36:16.953Z,224.00
2019-05-29T11:37:16.589Z,212.00
2019-05-29T11:38:16.572Z,204.00
2019-05-29T11:39:16.886Z,160.00
2019-05-29T11:40:16.559Z,152.00
2019-05-29T11:41:26.013Z,148.00
2019-05-29T11:42:26.988Z,144.00
2019-05-29T11:43:16.526Z,136.00
2019-05-29T11:44:16.513Z,144.00
2019-05-29T11:45:16.837Z,156.00
2019-05-29T11:46:16.494Z,216.00
2019-05-29T11:47:16.476Z,236.00
2019-05-29T11:48:16.806Z,264.00
2019-05-29T11:49:16.463Z,292.00
2019-05-29T11:50:19.856Z,476.00
2019-05-29T11:51:16.766Z,332.00
2019-05-29T11:52:24.422Z,320.00
2019-05-29T11:53:16.413Z,304.00
2019-05-29T11:54:16.703Z,284.00
2019-05-29T11:55:16.429Z,268.00
2019-05-29T11:56:16.373Z,260.00
2019-05-29T11:57:24.353Z,248.00
2019-05-29T11:58:30.777Z,240.00
2019-05-29T11:59:16.675Z,236.00
2019-05-29T12:00:20.073Z,208.00
2019-05-29T12:01:16.648Z,200.00
2019-05-29T12:02:16.677Z,200.00
2019-05-29T12:03:16.299Z,196.00
2019-05-29T12:04:25.463Z,192.00
2019-05-29T12:05:16.588Z,192.00
2019-05-29T12:06:16.274Z,192.00
2019-05-29T12:07:16.247Z,196.00
2019-05-29T12:08:16.544Z,196.00
2019-05-29T12:09:31.268Z,224.00
2019-05-29T12:10:16.309Z,224.00
2019-05-29T12:11:16.525Z,220.00
2019-05-29T12:12:16.197Z,216.00
2019-05-29T12:13:16.184Z,220.00
2019-05-29T12:14:16.478Z,212.00
2019-05-29T12:15:18.247Z,216.00
2019-05-29T12:16:16.165Z,216.00
2019-05-29T12:17:16.185Z,212.00
2019-05-29T12:18:23.395Z,216.00
2019-05-29T12:19:17.448Z,224.00
2019-05-29T12:20:30.857Z,236.00
2019-05-29T12:21:17.094Z,244.00
2019-05-29T12:22:16.435Z,240.00
2019-05-29T12:23:25.859Z,228.00
2019-05-29T12:24:17.065Z,220.00
2019-05-29T12:25:16.360Z,212.00
2019-05-29T12:26:22.455Z,200.00
2019-05-29T12:27:16.036Z,192.00
2019-05-29T12:28:16.311Z,180.00
2019-05-29T12:30:25.300Z,164.00
2019-05-29T12:31:25.225Z,164.00
2019-05-29T12:32:25.250Z,168.00
2019-05-29T12:33:25.275Z,176.00
2019-05-29T12:34:25.209Z,188.00
2019-05-29T12:35:25.193Z,208.00
2019-05-29T12:36:24.873Z,216.00
2019-05-29T12:37:24.855Z,224.00
2019-05-29T12:38:25.170Z,224.00
2019-05-29T12:39:24.840Z,228.00
2019-05-29T12:40:24.845Z,220.00
2019-05-29T12:41:25.130Z,228.00
2019-05-29T12:42:24.810Z,228.00
2019-05-29T12:43:27.759Z,220.00
2019-05-29T12:44:25.099Z,224.00
2019-05-29T12:45:24.771Z,224.00
2019-05-29T12:46:24.760Z,220.00
2019-05-29T12:47:24.743Z,244.00
2019-05-29T12:48:25.107Z,268.00
2019-05-29T12:49:24.729Z,296.00
2019-05-29T12:50:24.710Z,316.00
2019-05-29T12:51:24.699Z,328.00
2019-05-29T12:52:24.692Z,344.00
2019-05-29T12:53:30.472Z,360.00
2019-05-29T12:54:24.676Z,372.00
2019-05-29T12:55:24.651Z,416.00
2019-05-29T12:56:24.974Z,336.00
2019-05-29T12:57:24.631Z,320.00
2019-05-29T12:58:24.617Z,304.00
2019-05-29T12:59:24.938Z,276.00
2019-05-29T13:00:24.596Z,256.00
2019-05-29T13:01:31.373Z,236.00
2019-05-29T13:02:24.881Z,224.00
2019-05-29T13:03:24.893Z,216.00
2019-05-29T13:04:24.910Z,212.00
2019-05-29T13:05:24.899Z,220.00
2019-05-29T13:06:25.044Z,244.00
2019-05-29T13:07:24.525Z,240.00
2019-05-29T13:08:24.816Z,240.00
2019-05-29T13:09:24.535Z,240.00
2019-05-29T13:10:30.470Z,248.00
2019-05-29T13:11:25.057Z,264.00
2019-05-29T13:12:24.468Z,276.00
2019-05-29T13:13:24.446Z,280.00
2019-05-29T13:14:24.748Z,304.00
2019-05-29T13:15:24.433Z,312.00
2019-05-29T13:16:24.408Z,316.00
2019-05-29T13:17:24.397Z,344.00
2019-05-29T13:18:24.389Z,328.00
2019-05-29T13:19:24.380Z,332.00
2019-05-29T13:20:24.701Z,336.00
2019-05-29T13:21:24.365Z,320.00
2019-05-29T13:22:24.348Z,332.00
2019-05-29T13:23:24.709Z,352.00
2019-05-29T13:24:24.326Z,348.00
2019-05-29T13:25:24.386Z,356.00
2019-05-29T13:26:24.711Z,360.00
2019-05-29T13:27:24.286Z,348.00
2019-05-29T13:28:24.280Z,344.00
2019-05-29T13:29:24.550Z,340.00
2019-05-29T13:30:24.252Z,344.00
2019-05-29T13:31:24.253Z,388.00
2019-05-29T13:32:24.534Z,372.00
2019-05-29T13:34:33.473Z,364.00
2019-05-29T13:35:33.375Z,328.00
2019-05-29T13:36:33.109Z,312.00
2019-05-29T13:37:33.375Z,320.00
2019-05-29T13:38:33.628Z,320.00
2019-05-29T13:39:33.403Z,336.00
2019-05-29T13:40:33.326Z,336.00
2019-05-29T13:41:33.334Z,336.00
2019-05-29T13:42:33.013Z,304.00
2019-05-29T13:43:33.322Z,352.00
2019-05-29T13:44:32.983Z,440.00
2019-05-29T13:45:32.969Z,448.00
2019-05-29T13:46:32.961Z,416.00
2019-05-29T13:47:33.293Z,348.00
2019-05-29T13:48:32.938Z,324.00
2019-05-29T13:49:32.924Z,368.00
2019-05-29T13:50:32.908Z,368.00
2019-05-29T13:51:32.895Z,396.00
2019-05-29T13:52:33.665Z,412.00
2019-05-29T13:53:32.882Z,380.00
2019-05-29T13:54:32.870Z,344.00
2019-05-29T13:55:32.850Z,256.00
2019-05-29T13:56:32.838Z,248.00
2019-05-29T13:57:33.150Z,240.00
2019-05-29T13:58:32.834Z,244.00
2019-05-29T13:59:32.804Z,264.00
2019-05-29T14:00:34.760Z,260.00
2019-05-29T14:01:32.781Z,272.00
2019-05-29T14:02:32.769Z,328.00
2019-05-29T14:03:33.066Z,444.00
2019-05-29T14:04:32.754Z,504.00
2019-05-29T14:06:33.014Z,484.00
2019-05-29T14:07:33.048Z,464.00
2019-05-29T14:08:33.057Z,452.00
2019-05-29T14:09:33.029Z,448.00
2019-05-29T14:10:32.992Z,320.00
2019-05-29T14:11:32.669Z,444.00
2019-05-29T14:12:32.658Z,356.00
2019-05-29T14:13:33.026Z,220.00
2019-05-29T14:14:32.643Z,224.00
2019-05-29T14:15:32.625Z,420.00
2019-05-29T14:16:32.886Z,440.00
2019-05-29T14:17:34.763Z,440.00
2019-05-29T14:18:32.629Z,436.00
2019-05-29T14:19:32.926Z,424.00
2019-05-29T14:20:32.568Z,420.00
2019-05-29T14:21:32.557Z,408.00
2019-05-29T14:22:32.892Z,408.00
2019-05-29T14:23:32.540Z,408.00
2019-05-29T14:24:32.540Z,376.00
2019-05-29T14:25:32.815Z,196.00
2019-05-29T14:26:32.498Z,172.00
2019-05-29T14:27:32.486Z,168.00
2019-05-29T14:28:32.829Z,164.00
2019-05-29T14:29:32.489Z,164.00
2019-05-29T14:30:32.455Z,160.00
2019-05-29T14:31:32.756Z,152.00
2019-05-29T14:32:32.438Z,148.00
2019-05-29T14:33:32.418Z,148.00
2019-05-29T14:34:32.759Z,152.00
2019-05-29T14:35:32.402Z,160.00
2019-05-29T14:36:32.382Z,176.00
2019-05-29T14:37:39.956Z,216.00
2019-05-29T14:38:32.366Z,224.00
2019-05-29T14:39:32.673Z,364.00
2019-05-29T14:40:32.686Z,460.00
2019-05-29T14:41:32.623Z,460.00
2019-05-29T14:42:32.683Z,240.00
2019-05-29T14:43:32.608Z,460.00
2019-05-29T14:44:32.618Z,460.00
2019-05-29T14:45:32.295Z,460.00
2019-05-29T14:46:32.269Z,228.00
2019-05-29T14:47:32.632Z,224.00
2019-05-29T14:48:32.246Z,468.00
2019-05-29T14:49:32.232Z,364.00
2019-05-29T14:50:32.500Z,484.00
2019-05-29T14:51:32.229Z,212.00
2019-05-29T14:52:32.200Z,484.00
2019-05-29T14:53:32.566Z,484.00
2019-05-29T14:54:41.735Z,496.00
2019-05-29T14:55:32.173Z,448.00
2019-05-29T14:56:32.555Z,504.00
2019-05-29T14:57:32.143Z,504.00
2019-05-29T14:58:32.135Z,508.00
2019-05-29T14:59:32.423Z,484.00
2019-05-29T15:00:32.113Z,512.00
2019-05-29T15:01:32.133Z,496.00
2019-05-29T15:02:32.435Z,512.00
2019-05-29T15:03:32.086Z,528.00
2019-05-29T15:04:32.063Z,540.00
2019-05-29T15:05:32.394Z,268.00
2019-05-29T15:06:32.043Z,228.00
2019-05-29T15:07:32.065Z,520.00
2019-05-29T15:08:32.351Z,552.00
2019-05-29T15:10:41.231Z,560.00
2019-05-29T15:11:41.271Z,580.00
2019-05-29T15:12:41.229Z,592.00
2019-05-29T15:13:41.167Z,600.00
2019-05-29T15:14:41.177Z,612.00
2019-05-29T15:15:41.126Z,620.00
2019-05-29T15:16:40.828Z,624.00
2019-05-29T15:17:41.175Z,632.00
2019-05-29T15:18:40.793Z,644.00
2019-05-29T15:19:40.781Z,652.00
2019-05-29T15:20:40.773Z,656.00
2019-05-29T15:21:41.083Z,664.00
2019-05-29T15:22:40.747Z,200.00
2019-05-29T15:23:40.742Z,192.00
2019-05-29T15:24:58.913Z,196.00
2019-05-29T15:25:40.714Z,212.00
2019-05-29T15:26:41.007Z,176.00
2019-05-29T15:27:40.700Z,184.00
2019-05-29T15:28:40.729Z,184.00
2019-05-29T15:29:40.976Z,240.00
2019-05-29T15:30:40.659Z,584.00
2019-05-29T15:31:40.648Z,576.00
2019-05-29T15:32:41.183Z,740.00
2019-05-29T15:33:40.626Z,752.00
2019-05-29T15:34:40.635Z,752.00
2019-05-29T15:35:40.961Z,748.00
2019-05-29T15:36:40.595Z,776.00
2019-05-29T15:37:40.626Z,804.00
2019-05-29T15:38:40.826Z,384.00
2019-05-29T15:39:40.561Z,612.00
2019-05-29T15:40:40.570Z,812.00
2019-05-29T15:42:40.835Z,712.00
2019-05-29T15:43:40.893Z,584.00
2019-05-29T15:44:41.809Z,568.00
2019-05-29T15:45:40.908Z,588.00
2019-05-29T15:46:40.786Z,520.00
2019-05-29T15:47:40.478Z,664.00
2019-05-29T15:48:40.458Z,564.00
2019-05-29T15:49:40.782Z,260.00
2019-05-29T15:50:40.451Z,556.00
2019-05-29T15:51:40.422Z,768.00
2019-05-29T15:52:40.704Z,748.00
2019-05-29T15:53:40.413Z,612.00
2019-05-29T15:54:40.391Z,616.00
2019-05-29T15:55:40.702Z,536.00
2019-05-29T15:56:40.373Z,652.00
2019-05-29T15:58:40.652Z,656.00
2019-05-29T16:01:40.667Z,160.00
2019-05-29T16:02:40.339Z,896.00
2019-05-29T16:07:40.543Z,180.00
2019-05-29T16:10:40.541Z,844.00
2019-05-29T16:13:48.009Z,892.00
2019-05-29T16:19:40.411Z,608.00
2019-05-29T16:38:40.244Z,200.00
2019-05-29T16:41:40.179Z,132.00
2019-05-29T16:46:49.022Z,184.00
2019-05-29T16:47:48.983Z,188.00
2019-05-29T16:48:49.000Z,188.00
2019-05-29T16:49:49.023Z,188.00
2019-05-29T16:50:48.970Z,184.00
2019-05-29T16:51:49.014Z,180.00
2019-05-29T16:52:48.637Z,180.00
2019-05-29T16:53:48.621Z,176.00